aviador You're here:

MMTJ Decoded Metar

TIJUANA in MEXICO
Report Time2017-10-19 08:41:00
UTC Time2017-10-19 09:07:53
Flight Rules mvfr MVFR
WindCalm
Visibility4828 m
Phenomena:Mist
Clouds:N/A
CeilingNone
Temp17°C (ISA +3)
Dew Point17°C (100% RH)
QNH1014 hPa
Density Alt1,076 ft
Elevation499 ft
Report Wrong Elevation
Raw Report
METAR MMTJ 190841Z 00000KT 3SM BR SKC 17/17 A2995 RMK SLP141 58002
956=

Extra information for MMTJ:More info

Metar Taf Metar & Taf Last 4 Metars F.Rules Stats Wind Profile Meteogram Temp Stats Airport Information Weather charts Add Link Nearby VenuesMetar ALERT Operation Metar Decoded Social comments